sensor_id;sensor_type;location;lat;lon;timestamp;P1;durP1;ratioP1;P2;durP2;ratioP2
62479;SDS011;48526;48.846;2.322;2022-12-11T00:02:00;30.00;;;22.75;;
62479;SDS011;48526;48.846;2.322;2022-12-11T00:04:27;25.25;;;23.00;;
62479;SDS011;48526;48.846;2.322;2022-12-11T00:06:52;30.50;;;20.25;;
62479;SDS011;48526;48.846;2.322;2022-12-11T00:09:19;26.75;;;17.25;;
62479;SDS011;48526;48.846;2.322;2022-12-11T00:11:45;22.50;;;17.00;;
62479;SDS011;48526;48.846;2.322;2022-12-11T00:14:11;24.25;;;19.00;;
62479;SDS011;48526;48.846;2.322;2022-12-11T00:16:37;23.25;;;20.50;;
62479;SDS011;48526;48.846;2.322;2022-12-11T00:19:02;22.25;;;18.50;;
62479;SDS011;48526;48.846;2.322;2022-12-11T00:21:28;19.50;;;17.75;;
62479;SDS011;48526;48.846;2.322;2022-12-11T00:23:53;17.25;;;15.00;;
62479;SDS011;48526;48.846;2.322;2022-12-11T00:26:19;25.00;;;20.75;;
62479;SDS011;48526;48.846;2.322;2022-12-11T00:28:45;23.25;;;16.50;;
62479;SDS011;48526;48.846;2.322;2022-12-11T05:02:33;10.50;;;7.00;;
62479;SDS011;48526;48.846;2.322;2022-12-11T05:05:00;7.75;;;5.00;;
62479;SDS011;48526;48.846;2.322;2022-12-11T05:07:26;13.00;;;13.00;;
62479;SDS011;48526;48.846;2.322;2022-12-11T05:09:51;8.75;;;7.50;;
62479;SDS011;48526;48.846;2.322;2022-12-11T05:12:17;9.50;;;9.00;;
62479;SDS011;48526;48.846;2.322;2022-12-11T05:14:44;9.00;;;9.00;;
62479;SDS011;48526;48.846;2.322;2022-12-11T05:17:10;8.75;;;8.75;;
62479;SDS011;48526;48.846;2.322;2022-12-11T05:19:36;14.25;;;10.00;;
62479;SDS011;48526;48.846;2.322;2022-12-11T05:22:02;13.25;;;11.00;;
62479;SDS011;48526;48.846;2.322;2022-12-11T05:24:27;8.50;;;8.00;;
62479;SDS011;48526;48.846;2.322;2022-12-11T05:26:53;5.00;;;5.00;;
62479;SDS011;48526;48.846;2.322;2022-12-11T05:29:18;13.25;;;9.75;;
62479;SDS011;48526;48.846;2.322;2022-12-11T05:31:44;6.50;;;6.25;;
62479;SDS011;48526;48.846;2.322;2022-12-11T05:34:09;13.50;;;9.00;;
62479;SDS011;48526;48.846;2.322;2022-12-11T05:36:38;9.25;;;7.25;;
62479;SDS011;48526;48.846;2.322;2022-12-11T05:39:04;11.25;;;6.50;;
62479;SDS011;48526;48.846;2.322;2022-12-11T05:41:35;17.50;;;11.50;;
62479;SDS011;48526;48.846;2.322;2022-12-11T05:44:03;12.00;;;6.75;;
62479;SDS011;48526;48.846;2.322;2022-12-11T05:46:29;8.50;;;7.50;;
62479;SDS011;48526;48.846;2.322;2022-12-11T05:48:56;11.50;;;9.75;;
62479;SDS011;48526;48.846;2.322;2022-12-11T05:51:25;11.75;;;7.50;;
62479;SDS011;48526;48.846;2.322;2022-12-11T05:53:51;9.50;;;9.50;;
62479;SDS011;48526;48.846;2.322;2022-12-11T05:56:24;11.75;;;8.00;;
62479;SDS011;48526;48.846;2.322;2022-12-11T05:58:53;9.25;;;9.25;;
62479;SDS011;48526;48.846;2.322;2022-12-11T06:01:24;13.75;;;9.50;;
62479;SDS011;48526;48.846;2.322;2022-12-11T06:03:52;15.50;;;10.50;;
62479;SDS011;48526;48.846;2.322;2022-12-11T06:06:18;12.00;;;9.00;;
62479;SDS011;48526;48.846;2.322;2022-12-11T06:08:43;12.00;;;8.50;;
62479;SDS011;48526;48.846;2.322;2022-12-11T06:11:10;13.00;;;13.00;;
62479;SDS011;48526;48.846;2.322;2022-12-11T06:13:37;14.75;;;11.00;;
62479;SDS011;48526;48.846;2.322;2022-12-11T06:16:02;16.00;;;11.50;;
62479;SDS011;48526;48.846;2.322;2022-12-11T06:18:29;12.75;;;10.50;;
62479;SDS011;48526;48.846;2.322;2022-12-11T06:20:54;13.00;;;10.50;;
62479;SDS011;48526;48.846;2.322;2022-12-11T06:23:20;16.00;;;13.00;;
62479;SDS011;48526;48.846;2.322;2022-12-11T06:25:45;18.25;;;12.25;;
62479;SDS011;48526;48.846;2.322;2022-12-11T06:28:11;12.50;;;12.50;;
62479;SDS011;48526;48.846;2.322;2022-12-11T06:30:36;14.00;;;12.00;;
62479;SDS011;48526;48.846;2.322;2022-12-11T06:33:02;10.00;;;9.25;;
62479;SDS011;48526;48.846;2.322;2022-12-11T06:35:27;24.50;;;15.25;;
62479;SDS011;48526;48.846;2.322;2022-12-11T06:37:53;14.00;;;12.50;;
62479;SDS011;48526;48.846;2.322;2022-12-11T06:40:18;8.75;;;7.50;;
62479;SDS011;48526;48.846;2.322;2022-12-11T06:42:43;15.50;;;13.00;;
62479;SDS011;48526;48.846;2.322;2022-12-11T06:45:09;29.50;;;19.25;;
62479;SDS011;48526;48.846;2.322;2022-12-11T06:47:36;15.75;;;11.50;;
62479;SDS011;48526;48.846;2.322;2022-12-11T06:50:01;15.75;;;15.75;;
62479;SDS011;48526;48.846;2.322;2022-12-11T06:52:28;20.75;;;16.00;;
62479;SDS011;48526;48.846;2.322;2022-12-11T06:54:53;23.75;;;16.75;;
62479;SDS011;48526;48.846;2.322;2022-12-11T06:57:19;19.00;;;12.00;;
62479;SDS011;48526;48.846;2.322;2022-12-11T06:59:44;19.50;;;15.75;;
62479;SDS011;48526;48.846;2.322;2022-12-11T07:02:14;25.00;;;22.00;;
62479;SDS011;48526;48.846;2.322;2022-12-11T07:04:40;18.50;;;17.50;;
62479;SDS011;48526;48.846;2.322;2022-12-11T07:07:06;19.25;;;17.50;;
62479;SDS011;48526;48.846;2.322;2022-12-11T07:09:35;16.00;;;10.25;;
62479;SDS011;48526;48.846;2.322;2022-12-11T07:12:02;21.00;;;18.50;;
62479;SDS011;48526;48.846;2.322;2022-12-11T07:14:28;28.25;;;18.25;;
62479;SDS011;48526;48.846;2.322;2022-12-11T07:16:54;28.25;;;20.50;;
62479;SDS011;48526;48.846;2.322;2022-12-11T07:19:20;32.50;;;21.75;;
62479;SDS011;48526;48.846;2.322;2022-12-11T07:21:46;21.00;;;15.50;;
62479;SDS011;48526;48.846;2.322;2022-12-11T07:24:11;30.50;;;23.75;;
62479;SDS011;48526;48.846;2.322;2022-12-11T07:26:37;24.00;;;18.25;;
62479;SDS011;48526;48.846;2.322;2022-12-11T07:29:02;23.50;;;21.00;;
62479;SDS011;48526;48.846;2.322;2022-12-11T07:31:28;23.75;;;21.00;;
62479;SDS011;48526;48.846;2.322;2022-12-11T07:33:54;27.25;;;22.50;;
62479;SDS011;48526;48.846;2.322;2022-12-11T07:36:21;30.50;;;21.25;;
62479;SDS011;48526;48.846;2.322;2022-12-11T07:38:47;26.00;;;18.50;;
62479;SDS011;48526;48.846;2.322;2022-12-11T07:41:13;19.00;;;18.00;;
62479;SDS011;48526;48.846;2.322;2022-12-11T07:43:41;21.75;;;20.50;;
62479;SDS011;48526;48.846;2.322;2022-12-11T07:46:08;32.00;;;21.75;;
62479;SDS011;48526;48.846;2.322;2022-12-11T07:48:38;30.75;;;23.00;;
62479;SDS011;48526;48.846;2.322;2022-12-11T07:51:18;25.50;;;21.75;;
62479;SDS011;48526;48.846;2.322;2022-12-11T07:53:55;24.50;;;20.25;;
62479;SDS011;48526;48.846;2.322;2022-12-11T07:56:22;29.00;;;22.00;;
62479;SDS011;48526;48.846;2.322;2022-12-11T07:58:47;27.75;;;23.50;;
62479;SDS011;48526;48.846;2.322;2022-12-11T08:01:14;23.50;;;19.25;;
62479;SDS011;48526;48.846;2.322;2022-12-11T08:03:41;23.50;;;20.50;;
62479;SDS011;48526;48.846;2.322;2022-12-11T08:06:07;25.50;;;20.75;;
62479;SDS011;48526;48.846;2.322;2022-12-11T08:08:33;29.50;;;21.50;;
62479;SDS011;48526;48.846;2.322;2022-12-11T08:11:02;21.50;;;18.75;;
62479;SDS011;48526;48.846;2.322;2022-12-11T08:13:28;32.75;;;21.50;;
62479;SDS011;48526;48.846;2.322;2022-12-11T08:15:54;35.75;;;25.00;;
62479;SDS011;48526;48.846;2.322;2022-12-11T08:18:19;28.50;;;20.50;;
62479;SDS011;48526;48.846;2.322;2022-12-11T08:20:45;27.00;;;22.00;;
62479;SDS011;48526;48.846;2.322;2022-12-11T08:23:11;22.50;;;21.25;;
62479;SDS011;48526;48.846;2.322;2022-12-11T08:25:36;28.50;;;24.00;;
62479;SDS011;48526;48.846;2.322;2022-12-11T08:28:02;25.75;;;21.50;;
62479;SDS011;48526;48.846;2.322;2022-12-11T08:30:28;29.25;;;23.00;;
62479;SDS011;48526;48.846;2.322;2022-12-11T08:32:54;23.00;;;19.00;;
62479;SDS011;48526;48.846;2.322;2022-12-11T08:35:19;28.50;;;23.00;;
62479;SDS011;48526;48.846;2.322;2022-12-11T08:37:44;23.75;;;19.25;;
62479;SDS011;48526;48.846;2.322;2022-12-11T08:40:10;24.50;;;20.50;;
62479;SDS011;48526;48.846;2.322;2022-12-11T08:42:36;27.00;;;24.75;;
62479;SDS011;48526;48.846;2.322;2022-12-11T08:45:02;32.25;;;20.50;;
62479;SDS011;48526;48.846;2.322;2022-12-11T08:47:28;24.25;;;18.25;;
62479;SDS011;48526;48.846;2.322;2022-12-11T08:49:54;26.50;;;18.50;;
62479;SDS011;48526;48.846;2.322;2022-12-11T08:52:19;23.00;;;20.50;;
62479;SDS011;48526;48.846;2.322;2022-12-11T08:54:44;17.50;;;14.00;;
62479;SDS011;48526;48.846;2.322;2022-12-11T08:57:10;29.75;;;21.50;;
62479;SDS011;48526;48.846;2.322;2022-12-11T08:59:35;30.50;;;21.75;;
62479;SDS011;48526;48.846;2.322;2022-12-11T09:02:03;29.50;;;23.00;;
62479;SDS011;48526;48.846;2.322;2022-12-11T09:04:28;31.25;;;22.00;;
62479;SDS011;48526;48.846;2.322;2022-12-11T09:06:54;20.00;;;18.00;;
62479;SDS011;48526;48.846;2.322;2022-12-11T09:09:19;32.25;;;22.75;;
62479;SDS011;48526;48.846;2.322;2022-12-11T09:11:44;28.00;;;21.00;;
62479;SDS011;48526;48.846;2.322;2022-12-11T09:14:10;23.67;;;15.33;;
62479;SDS011;48526;48.846;2.322;2022-12-11T09:16:37;28.50;;;20.00;;
62479;SDS011;48526;48.846;2.322;2022-12-11T09:19:04;23.00;;;17.00;;
62479;SDS011;48526;48.846;2.322;2022-12-11T09:21:31;34.25;;;22.75;;
62479;SDS011;48526;48.846;2.322;2022-12-11T09:23:57;28.00;;;18.67;;
62479;SDS011;48526;48.846;2.322;2022-12-11T09:26:25;27.50;;;25.75;;
62479;SDS011;48526;48.846;2.322;2022-12-11T09:28:51;26.00;;;24.00;;
62479;SDS011;48526;48.846;2.322;2022-12-11T09:31:21;20.50;;;19.50;;
62479;SDS011;48526;48.846;2.322;2022-12-11T09:33:48;23.50;;;21.25;;
62479;SDS011;48526;48.846;2.322;2022-12-11T09:36:16;28.25;;;24.75;;
62479;SDS011;48526;48.846;2.322;2022-12-11T09:38:42;27.00;;;21.25;;
62479;SDS011;48526;48.846;2.322;2022-12-11T09:46:31;20.00;;;16.50;;
62479;SDS011;48526;48.846;2.322;2022-12-11T09:48:58;27.50;;;20.00;;
62479;SDS011;48526;48.846;2.322;2022-12-11T09:53:56;27.25;;;22.00;;
62479;SDS011;48526;48.846;2.322;2022-12-11T09:56:24;30.00;;;25.50;;
62479;SDS011;48526;48.846;2.322;2022-12-11T10:01:20;23.33;;;16.00;;
62479;SDS011;48526;48.846;2.322;2022-12-11T10:05:16;27.50;;;23.75;;
62479;SDS011;48526;48.846;2.322;2022-12-11T10:10:13;20.25;;;18.00;;
62479;SDS011;48526;48.846;2.322;2022-12-11T10:17:59;30.00;;;24.25;;
62479;SDS011;48526;48.846;2.322;2022-12-11T10:20:30;25.25;;;20.50;;
62479;SDS011;48526;48.846;2.322;2022-12-11T10:22:59;23.75;;;18.25;;
62479;SDS011;48526;48.846;2.322;2022-12-11T10:27:55;23.75;;;21.50;;
62479;SDS011;48526;48.846;2.322;2022-12-11T10:30:25;25.50;;;22.75;;
62479;SDS011;48526;48.846;2.322;2022-12-11T10:32:59;24.50;;;19.25;;
62479;SDS011;48526;48.846;2.322;2022-12-11T10:35:41;36.25;;;25.25;;
62479;SDS011;48526;48.846;2.322;2022-12-11T10:41:04;22.50;;;21.00;;
62479;SDS011;48526;48.846;2.322;2022-12-11T10:43:44;32.00;;;24.75;;
62479;SDS011;48526;48.846;2.322;2022-12-11T10:48:47;27.00;;;24.00;;
62479;SDS011;48526;48.846;2.322;2022-12-11T10:51:14;24.25;;;18.00;;
62479;SDS011;48526;48.846;2.322;2022-12-11T10:53:40;27.75;;;22.50;;
62479;SDS011;48526;48.846;2.322;2022-12-11T10:56:07;24.50;;;19.75;;
62479;SDS011;48526;48.846;2.322;2022-12-11T10:58:33;27.25;;;22.00;;
62479;SDS011;48526;48.846;2.322;2022-12-11T11:03:33;31.50;;;24.25;;
62479;SDS011;48526;48.846;2.322;2022-12-11T11:08:42;25.50;;;20.75;;
62479;SDS011;48526;48.846;2.322;2022-12-11T11:11:24;21.00;;;18.00;;
62479;SDS011;48526;48.846;2.322;2022-12-11T11:14:05;22.75;;;21.00;;
62479;SDS011;48526;48.846;2.322;2022-12-11T11:16:35;26.50;;;21.25;;
62479;SDS011;48526;48.846;2.322;2022-12-11T11:19:01;24.75;;;19.00;;
62479;SDS011;48526;48.846;2.322;2022-12-11T11:21:29;31.00;;;22.50;;
62479;SDS011;48526;48.846;2.322;2022-12-11T11:23:55;31.00;;;20.25;;
62479;SDS011;48526;48.846;2.322;2022-12-11T11:26:21;30.25;;;23.25;;
62479;SDS011;48526;48.846;2.322;2022-12-11T11:28:52;30.00;;;21.75;;
62479;SDS011;48526;48.846;2.322;2022-12-11T11:31:20;35.25;;;25.50;;
62479;SDS011;48526;48.846;2.322;2022-12-11T11:33:56;32.75;;;27.25;;
62479;SDS011;48526;48.846;2.322;2022-12-11T11:36:32;27.00;;;22.50;;
62479;SDS011;48526;48.846;2.322;2022-12-11T11:39:21;29.25;;;24.25;;
62479;SDS011;48526;48.846;2.322;2022-12-11T11:42:12;29.25;;;22.75;;
62479;SDS011;48526;48.846;2.322;2022-12-11T11:44:44;26.75;;;24.50;;
62479;SDS011;48526;48.846;2.322;2022-12-11T11:47:22;33.50;;;23.50;;
62479;SDS011;48526;48.846;2.322;2022-12-11T11:58:38;28.00;;;23.25;;
62479;SDS011;48526;48.846;2.322;2022-12-11T12:01:15;28.00;;;24.00;;
62479;SDS011;48526;48.846;2.322;2022-12-11T12:03:42;27.25;;;19.00;;
62479;SDS011;48526;48.846;2.322;2022-12-11T12:06:16;30.50;;;27.00;;
62479;SDS011;48526;48.846;2.322;2022-12-11T12:14:28;29.75;;;22.75;;
62479;SDS011;48526;48.846;2.322;2022-12-11T12:19:53;31.25;;;22.50;;
62479;SDS011;48526;48.846;2.322;2022-12-11T12:22:45;17.00;;;12.25;;
62479;SDS011;48526;48.846;2.322;2022-12-11T12:25:41;33.00;;;24.25;;
62479;SDS011;48526;48.846;2.322;2022-12-11T12:28:50;32.25;;;22.75;;
62479;SDS011;48526;48.846;2.322;2022-12-11T12:31:27;25.75;;;22.00;;
62479;SDS011;48526;48.846;2.322;2022-12-11T12:36:42;29.33;;;20.67;;
62479;SDS011;48526;48.846;2.322;2022-12-11T12:39:21;22.50;;;19.00;;
62479;SDS011;48526;48.846;2.322;2022-12-11T12:44:58;26.25;;;21.75;;
62479;SDS011;48526;48.846;2.322;2022-12-11T12:47:46;31.00;;;25.75;;
62479;SDS011;48526;48.846;2.322;2022-12-11T12:50:16;30.00;;;25.50;;
62479;SDS011;48526;48.846;2.322;2022-12-11T12:52:46;36.00;;;30.25;;
62479;SDS011;48526;48.846;2.322;2022-12-11T12:57:37;28.50;;;22.75;;
62479;SDS011;48526;48.846;2.322;2022-12-11T13:00:06;35.00;;;27.25;;
62479;SDS011;48526;48.846;2.322;2022-12-11T13:02:35;32.50;;;25.25;;
62479;SDS011;48526;48.846;2.322;2022-12-11T13:05:17;25.50;;;23.75;;
62479;SDS011;48526;48.846;2.322;2022-12-11T13:07:54;38.75;;;31.00;;
62479;SDS011;48526;48.846;2.322;2022-12-11T13:10:29;29.50;;;24.25;;
62479;SDS011;48526;48.846;2.322;2022-12-11T13:13:02;35.00;;;26.25;;
62479;SDS011;48526;48.846;2.322;2022-12-11T13:15:40;37.00;;;28.00;;
62479;SDS011;48526;48.846;2.322;2022-12-11T13:20:59;17.75;;;17.75;;
62479;SDS011;48526;48.846;2.322;2022-12-11T13:23:38;32.75;;;28.50;;
62479;SDS011;48526;48.846;2.322;2022-12-11T13:26:04;38.75;;;30.50;;
62479;SDS011;48526;48.846;2.322;2022-12-11T13:33:53;30.25;;;23.50;;
62479;SDS011;48526;48.846;2.322;2022-12-11T13:36:32;42.00;;;30.00;;
62479;SDS011;48526;48.846;2.322;2022-12-11T13:41:47;31.00;;;22.50;;
62479;SDS011;48526;48.846;2.322;2022-12-11T13:44:18;33.25;;;28.00;;
62479;SDS011;48526;48.846;2.322;2022-12-11T13:46:47;33.50;;;29.75;;
62479;SDS011;48526;48.846;2.322;2022-12-11T13:49:24;32.75;;;27.50;;
62479;SDS011;48526;48.846;2.322;2022-12-11T13:51:54;24.75;;;20.50;;
62479;SDS011;48526;48.846;2.322;2022-12-11T13:54:22;27.25;;;22.25;;
62479;SDS011;48526;48.846;2.322;2022-12-11T13:57:31;30.50;;;26.00;;
62479;SDS011;48526;48.846;2.322;2022-12-11T13:59:41;25.00;;;20.75;;
62479;SDS011;48526;48.846;2.322;2022-12-11T14:02:13;30.25;;;28.00;;
62479;SDS011;48526;48.846;2.322;2022-12-11T14:04:42;26.25;;;19.75;;
62479;SDS011;48526;48.846;2.322;2022-12-11T14:07:08;33.75;;;28.75;;
62479;SDS011;48526;48.846;2.322;2022-12-11T14:09:36;26.75;;;20.50;;
62479;SDS011;48526;48.846;2.322;2022-12-11T14:12:03;31.25;;;20.75;;
62479;SDS011;48526;48.846;2.322;2022-12-11T14:14:41;36.00;;;31.00;;
62479;SDS011;48526;48.846;2.322;2022-12-11T14:17:11;33.50;;;24.75;;
62479;SDS011;48526;48.846;2.322;2022-12-11T14:19:39;44.50;;;35.00;;
62479;SDS011;48526;48.846;2.322;2022-12-11T14:22:15;42.00;;;30.75;;
62479;SDS011;48526;48.846;2.322;2022-12-11T14:24:50;33.25;;;31.00;;
62479;SDS011;48526;48.846;2.322;2022-12-11T14:27:17;28.75;;;22.00;;
62479;SDS011;48526;48.846;2.322;2022-12-11T14:29:43;36.00;;;32.50;;
62479;SDS011;48526;48.846;2.322;2022-12-11T14:32:12;41.50;;;35.50;;
62479;SDS011;48526;48.846;2.322;2022-12-11T14:34:43;39.00;;;30.75;;
62479;SDS011;48526;48.846;2.322;2022-12-11T14:37:09;31.75;;;25.25;;
62479;SDS011;48526;48.846;2.322;2022-12-11T14:40:00;34.25;;;26.25;;
62479;SDS011;48526;48.846;2.322;2022-12-11T14:42:26;40.50;;;33.25;;
62479;SDS011;48526;48.846;2.322;2022-12-11T14:44:57;44.75;;;32.75;;
62479;SDS011;48526;48.846;2.322;2022-12-11T14:47:38;30.75;;;30.00;;
62479;SDS011;48526;48.846;2.322;2022-12-11T14:50:17;34.75;;;28.75;;
62479;SDS011;48526;48.846;2.322;2022-12-11T14:52:46;34.75;;;30.75;;
62479;SDS011;48526;48.846;2.322;2022-12-11T14:55:21;37.25;;;34.25;;
62479;SDS011;48526;48.846;2.322;2022-12-11T14:57:50;37.00;;;27.25;;
62479;SDS011;48526;48.846;2.322;2022-12-11T15:00:22;27.50;;;26.50;;
62479;SDS011;48526;48.846;2.322;2022-12-11T15:02:57;31.50;;;29.50;;
62479;SDS011;48526;48.846;2.322;2022-12-11T15:05:23;41.50;;;28.50;;
62479;SDS011;48526;48.846;2.322;2022-12-11T15:07:55;29.25;;;26.75;;
62479;SDS011;48526;48.846;2.322;2022-12-11T15:10:29;37.25;;;31.25;;
62479;SDS011;48526;48.846;2.322;2022-12-11T15:12:59;28.50;;;25.00;;
62479;SDS011;48526;48.846;2.322;2022-12-11T15:15:25;34.50;;;31.00;;
62479;SDS011;48526;48.846;2.322;2022-12-11T15:17:52;36.25;;;30.50;;
62479;SDS011;48526;48.846;2.322;2022-12-11T15:20:22;32.00;;;27.50;;
62479;SDS011;48526;48.846;2.322;2022-12-11T15:22:50;39.75;;;32.75;;
62479;SDS011;48526;48.846;2.322;2022-12-11T15:25:23;36.50;;;29.50;;
62479;SDS011;48526;48.846;2.322;2022-12-11T15:27:59;32.75;;;27.25;;
62479;SDS011;48526;48.846;2.322;2022-12-11T15:30:26;35.25;;;32.75;;
62479;SDS011;48526;48.846;2.322;2022-12-11T15:33:01;46.25;;;32.25;;
62479;SDS011;48526;48.846;2.322;2022-12-11T15:35:36;39.75;;;32.25;;
62479;SDS011;48526;48.846;2.322;2022-12-11T15:38:02;38.00;;;31.00;;
62479;SDS011;48526;48.846;2.322;2022-12-11T15:40:28;36.00;;;32.00;;
62479;SDS011;48526;48.846;2.322;2022-12-11T15:42:54;35.25;;;24.75;;
62479;SDS011;48526;48.846;2.322;2022-12-11T15:45:26;33.50;;;30.75;;
62479;SDS011;48526;48.846;2.322;2022-12-11T15:47:53;46.00;;;35.75;;
62479;SDS011;48526;48.846;2.322;2022-12-11T15:52:45;35.25;;;29.25;;
62479;SDS011;48526;48.846;2.322;2022-12-11T15:55:14;32.75;;;30.75;;
62479;SDS011;48526;48.846;2.322;2022-12-11T15:57:50;32.75;;;32.75;;
62479;SDS011;48526;48.846;2.322;2022-12-11T16:00:18;46.50;;;32.25;;
62479;SDS011;48526;48.846;2.322;2022-12-11T16:02:44;33.25;;;28.75;;
62479;SDS011;48526;48.846;2.322;2022-12-11T16:05:13;41.50;;;32.50;;
62479;SDS011;48526;48.846;2.322;2022-12-11T16:07:38;39.00;;;27.75;;
62479;SDS011;48526;48.846;2.322;2022-12-11T16:10:05;38.75;;;30.25;;
62479;SDS011;48526;48.846;2.322;2022-12-11T16:12:31;28.50;;;23.25;;
62479;SDS011;48526;48.846;2.322;2022-12-11T16:14:56;43.00;;;36.50;;
62479;SDS011;48526;48.846;2.322;2022-12-11T16:17:22;42.50;;;32.75;;
62479;SDS011;48526;48.846;2.322;2022-12-11T16:19:47;43.25;;;34.00;;
62479;SDS011;48526;48.846;2.322;2022-12-11T16:22:13;39.33;;;34.00;;
62479;SDS011;48526;48.846;2.322;2022-12-11T16:24:40;51.00;;;34.75;;
62479;SDS011;48526;48.846;2.322;2022-12-11T16:27:06;48.25;;;35.25;;
62479;SDS011;48526;48.846;2.322;2022-12-11T16:29:37;58.25;;;44.50;;
62479;SDS011;48526;48.846;2.322;2022-12-11T16:32:04;38.00;;;32.50;;
62479;SDS011;48526;48.846;2.322;2022-12-11T16:34:32;50.00;;;37.25;;
62479;SDS011;48526;48.846;2.322;2022-12-11T16:36:57;45.75;;;37.25;;
62479;SDS011;48526;48.846;2.322;2022-12-11T16:39:23;44.25;;;34.25;;
62479;SDS011;48526;48.846;2.322;2022-12-11T16:41:48;59.25;;;47.50;;
62479;SDS011;48526;48.846;2.322;2022-12-11T16:44:24;50.75;;;38.25;;
62479;SDS011;48526;48.846;2.322;2022-12-11T16:46:50;50.25;;;40.00;;
62479;SDS011;48526;48.846;2.322;2022-12-11T16:49:16;51.00;;;45.25;;
62479;SDS011;48526;48.846;2.322;2022-12-11T16:51:42;44.25;;;30.50;;
62479;SDS011;48526;48.846;2.322;2022-12-11T16:54:08;38.75;;;34.00;;
62479;SDS011;48526;48.846;2.322;2022-12-11T16:56:34;46.75;;;39.00;;
62479;SDS011;48526;48.846;2.322;2022-12-11T16:59:00;48.25;;;43.75;;
62479;SDS011;48526;48.846;2.322;2022-12-11T17:01:26;57.25;;;45.25;;
62479;SDS011;48526;48.846;2.322;2022-12-11T17:03:54;51.75;;;43.50;;
62479;SDS011;48526;48.846;2.322;2022-12-11T17:06:20;43.67;;;37.67;;
62479;SDS011;48526;48.846;2.322;2022-12-11T17:08:46;45.50;;;39.75;;
62479;SDS011;48526;48.846;2.322;2022-12-11T17:11:13;44.25;;;33.00;;
62479;SDS011;48526;48.846;2.322;2022-12-11T17:13:40;37.00;;;33.50;;
62479;SDS011;48526;48.846;2.322;2022-12-11T17:16:07;52.25;;;41.00;;
62479;SDS011;48526;48.846;2.322;2022-12-11T17:18:34;44.75;;;38.50;;
62479;SDS011;48526;48.846;2.322;2022-12-11T17:21:03;38.00;;;32.50;;
62479;SDS011;48526;48.846;2.322;2022-12-11T17:23:30;40.25;;;33.00;;
62479;SDS011;48526;48.846;2.322;2022-12-11T17:25:56;44.00;;;36.50;;
62479;SDS011;48526;48.846;2.322;2022-12-11T17:28:22;57.50;;;39.50;;
62479;SDS011;48526;48.846;2.322;2022-12-11T17:30:47;54.67;;;45.67;;
62479;SDS011;48526;48.846;2.322;2022-12-11T17:33:14;49.00;;;42.25;;
62479;SDS011;48526;48.846;2.322;2022-12-11T17:35:40;49.75;;;37.00;;
62479;SDS011;48526;48.846;2.322;2022-12-11T17:38:05;50.75;;;40.00;;
62479;SDS011;48526;48.846;2.322;2022-12-11T17:40:31;40.75;;;36.50;;
62479;SDS011;48526;48.846;2.322;2022-12-11T17:42:56;49.00;;;34.50;;
62479;SDS011;48526;48.846;2.322;2022-12-11T17:45:22;38.75;;;36.50;;
62479;SDS011;48526;48.846;2.322;2022-12-11T17:47:47;50.50;;;35.50;;
62479;SDS011;48526;48.846;2.322;2022-12-11T17:50:16;50.00;;;37.00;;
62479;SDS011;48526;48.846;2.322;2022-12-11T17:52:41;49.00;;;41.75;;
62479;SDS011;48526;48.846;2.322;2022-12-11T17:55:10;39.00;;;34.00;;
62479;SDS011;48526;48.846;2.322;2022-12-11T17:57:35;55.50;;;45.00;;
62479;SDS011;48526;48.846;2.322;2022-12-11T18:00:02;58.00;;;42.25;;
62479;SDS011;48526;48.846;2.322;2022-12-11T18:02:33;52.25;;;43.50;;
62479;SDS011;48526;48.846;2.322;2022-12-11T18:04:58;48.25;;;41.50;;
62479;SDS011;48526;48.846;2.322;2022-12-11T18:07:23;46.50;;;35.25;;
62479;SDS011;48526;48.846;2.322;2022-12-11T18:09:49;51.75;;;46.50;;
62479;SDS011;48526;48.846;2.322;2022-12-11T18:12:14;50.00;;;42.50;;
62479;SDS011;48526;48.846;2.322;2022-12-11T18:14:40;48.50;;;36.00;;
62479;SDS011;48526;48.846;2.322;2022-12-11T18:17:05;37.25;;;28.50;;
62479;SDS011;48526;48.846;2.322;2022-12-11T18:19:35;33.75;;;30.00;;
62479;SDS011;48526;48.846;2.322;2022-12-11T18:22:04;37.25;;;32.00;;
62479;SDS011;48526;48.846;2.322;2022-12-11T18:24:30;32.50;;;30.00;;
62479;SDS011;48526;48.846;2.322;2022-12-11T18:26:58;30.25;;;18.75;;
62479;SDS011;48526;48.846;2.322;2022-12-11T18:29:24;42.00;;;36.25;;
62479;SDS011;48526;48.846;2.322;2022-12-11T18:31:50;47.25;;;40.00;;
62479;SDS011;48526;48.846;2.322;2022-12-11T18:34:16;51.75;;;41.50;;
62479;SDS011;48526;48.846;2.322;2022-12-11T18:36:44;37.00;;;32.25;;
62479;SDS011;48526;48.846;2.322;2022-12-11T18:39:09;37.50;;;33.25;;
62479;SDS011;48526;48.846;2.322;2022-12-11T18:41:34;49.75;;;33.25;;
62479;SDS011;48526;48.846;2.322;2022-12-11T18:44:12;44.00;;;35.00;;
62479;SDS011;48526;48.846;2.322;2022-12-11T18:46:41;38.00;;;31.00;;
62479;SDS011;48526;48.846;2.322;2022-12-11T18:49:09;49.00;;;38.25;;
62479;SDS011;48526;48.846;2.322;2022-12-11T18:51:36;45.25;;;38.75;;
62479;SDS011;48526;48.846;2.322;2022-12-11T18:54:06;37.25;;;31.00;;
62479;SDS011;48526;48.846;2.322;2022-12-11T18:57:11;43.25;;;34.25;;
62479;SDS011;48526;48.846;2.322;2022-12-11T18:59:37;43.00;;;36.00;;
62479;SDS011;48526;48.846;2.322;2022-12-11T19:02:03;42.75;;;35.75;;
62479;SDS011;48526;48.846;2.322;2022-12-11T19:04:32;44.50;;;38.25;;
62479;SDS011;48526;48.846;2.322;2022-12-11T19:07:01;45.25;;;41.50;;
62479;SDS011;48526;48.846;2.322;2022-12-11T19:09:28;48.50;;;43.75;;
62479;SDS011;48526;48.846;2.322;2022-12-11T19:11:54;45.00;;;36.50;;
62479;SDS011;48526;48.846;2.322;2022-12-11T19:14:20;35.25;;;30.00;;
62479;SDS011;48526;48.846;2.322;2022-12-11T19:16:46;47.75;;;33.50;;
62479;SDS011;48526;48.846;2.322;2022-12-11T19:19:15;45.25;;;39.50;;
62479;SDS011;48526;48.846;2.322;2022-12-11T19:21:44;38.00;;;31.75;;
62479;SDS011;48526;48.846;2.322;2022-12-11T19:24:17;33.50;;;33.25;;
62479;SDS011;48526;48.846;2.322;2022-12-11T19:26:44;49.75;;;40.50;;
62479;SDS011;48526;48.846;2.322;2022-12-11T19:29:16;49.00;;;38.50;;
62479;SDS011;48526;48.846;2.322;2022-12-11T19:31:46;47.75;;;38.50;;
62479;SDS011;48526;48.846;2.322;2022-12-11T19:34:11;42.50;;;33.75;;
62479;SDS011;48526;48.846;2.322;2022-12-11T19:36:39;34.25;;;29.50;;
62479;SDS011;48526;48.846;2.322;2022-12-11T19:39:08;32.25;;;31.25;;
62479;SDS011;48526;48.846;2.322;2022-12-11T19:41:33;40.75;;;30.00;;
62479;SDS011;48526;48.846;2.322;2022-12-11T19:44:03;40.25;;;35.50;;
62479;SDS011;48526;48.846;2.322;2022-12-11T19:46:29;48.50;;;40.00;;
62479;SDS011;48526;48.846;2.322;2022-12-11T19:48:55;36.75;;;32.00;;
62479;SDS011;48526;48.846;2.322;2022-12-11T19:51:23;44.75;;;33.25;;
62479;SDS011;48526;48.846;2.322;2022-12-11T19:53:50;51.50;;;40.75;;
62479;SDS011;48526;48.846;2.322;2022-12-11T19:56:16;41.50;;;32.00;;
62479;SDS011;48526;48.846;2.322;2022-12-11T19:58:42;37.50;;;32.75;;
62479;SDS011;48526;48.846;2.322;2022-12-11T20:01:08;35.25;;;24.25;;
62479;SDS011;48526;48.846;2.322;2022-12-11T20:03:34;35.75;;;29.75;;
62479;SDS011;48526;48.846;2.322;2022-12-11T20:06:04;46.50;;;30.50;;
62479;SDS011;48526;48.846;2.322;2022-12-11T20:08:32;36.75;;;29.00;;
62479;SDS011;48526;48.846;2.322;2022-12-11T20:11:06;39.75;;;27.75;;
62479;SDS011;48526;48.846;2.322;2022-12-11T20:13:34;35.50;;;27.50;;
62479;SDS011;48526;48.846;2.322;2022-12-11T20:16:01;34.50;;;33.50;;